createdAt,value
2023-01-11T00:00:55.462Z,3.83
2023-01-11T00:03:22.063Z,3.80
2023-01-11T00:05:48.637Z,3.78
2023-01-11T00:08:15.212Z,3.79
2023-01-11T00:10:42.021Z,3.78
2023-01-11T00:13:08.599Z,3.72
2023-01-11T00:15:38.130Z,3.65
2023-01-11T00:18:04.905Z,3.62
2023-01-11T00:20:31.646Z,3.64
2023-01-11T00:22:58.841Z,3.63
2023-01-11T00:25:25.623Z,3.66
2023-01-11T00:27:52.373Z,3.60
2023-01-11T00:30:19.311Z,3.58
2023-01-11T00:32:45.903Z,3.56
2023-01-11T00:35:13.307Z,3.52
2023-01-11T00:37:39.935Z,3.47
2023-01-11T00:40:07.454Z,3.49
2023-01-11T00:42:52.588Z,3.43
2023-01-11T00:45:37.258Z,3.45
2023-01-11T00:48:06.054Z,3.48
2023-01-11T00:50:40.441Z,3.52
2023-01-11T00:53:08.969Z,3.62
2023-01-11T00:55:36.539Z,3.67
2023-01-11T00:58:03.609Z,3.62
2023-01-11T01:00:30.250Z,3.59
2023-01-11T01:02:57.281Z,3.49
2023-01-11T01:05:24.241Z,3.51
2023-01-11T01:07:50.890Z,3.53
2023-01-11T01:10:18.390Z,3.57
2023-01-11T01:13:20.857Z,3.52
2023-01-11T01:15:47.443Z,3.53
2023-01-11T01:18:14.101Z,3.55
2023-01-11T01:20:42.096Z,3.48
2023-01-11T01:23:08.655Z,3.42
2023-01-11T01:25:37.172Z,3.35
2023-01-11T01:28:03.862Z,3.38
2023-01-11T01:30:30.493Z,3.34
2023-01-11T01:32:56.999Z,3.25
2023-01-11T01:35:23.548Z,3.20
2023-01-11T01:37:50.065Z,3.12
2023-01-11T01:40:16.783Z,3.07
2023-01-11T01:42:43.399Z,3.11
2023-01-11T01:45:26.145Z,3.09
2023-01-11T01:48:01.689Z,3.05
2023-01-11T01:50:42.173Z,3.05
2023-01-11T01:53:13.129Z,3.01
2023-01-11T01:55:43.480Z,3.07
2023-01-11T01:58:14.197Z,3.15
2023-01-11T02:00:44.054Z,3.15
2023-01-11T02:03:16.163Z,3.15
2023-01-11T02:05:43.091Z,3.24
2023-01-11T02:08:17.915Z,3.29
2023-01-11T02:10:44.493Z,3.27
2023-01-11T02:13:14.377Z,3.26
2023-01-11T02:15:41.112Z,3.24
2023-01-11T02:18:13.185Z,3.14
2023-01-11T02:20:51.769Z,3.09
2023-01-11T02:23:55.888Z,3.00
2023-01-11T02:26:25.367Z,2.97
2023-01-11T02:28:59.907Z,2.92
2023-01-11T02:31:42.803Z,2.98
2023-01-11T02:34:12.237Z,2.98
2023-01-11T02:37:03.575Z,2.92
2023-01-11T02:39:33.239Z,2.87
2023-01-11T02:42:57.655Z,2.78
2023-01-11T02:45:38.295Z,2.70
2023-01-11T02:48:11.708Z,2.61
2023-01-11T02:50:48.462Z,2.62
2023-01-11T02:53:28.604Z,2.62
2023-01-11T02:55:59.292Z,2.59
2023-01-11T02:58:29.641Z,2.59
2023-01-11T03:00:58.438Z,2.61
2023-01-11T03:03:29.623Z,2.62
2023-01-11T03:06:12.767Z,2.58
2023-01-11T03:08:57.565Z,2.54
2023-01-11T03:11:54.840Z,2.50
2023-01-11T03:14:41.630Z,2.54
2023-01-11T03:17:53.400Z,2.48
2023-01-11T03:20:29.347Z,2.40
2023-01-11T03:23:12.662Z,2.26
2023-01-11T03:25:57.808Z,2.16
2023-01-11T03:28:36.606Z,2.10
2023-01-11T03:31:09.382Z,2.04
2023-01-11T03:33:51.081Z,1.98
2023-01-11T03:36:29.068Z,1.88
2023-01-11T03:39:27.282Z,1.86
2023-01-11T03:41:57.566Z,1.85
2023-01-11T03:44:26.687Z,1.84
2023-01-11T03:47:05.438Z,1.81
2023-01-11T03:49:37.157Z,1.75
2023-01-11T03:52:09.497Z,1.67
2023-01-11T03:54:36.899Z,1.57
2023-01-11T03:57:24.569Z,1.51
2023-01-11T03:59:51.546Z,1.45
2023-01-11T04:02:33.691Z,1.38
2023-01-11T04:05:00.418Z,1.25
2023-01-11T04:07:26.980Z,1.18
2023-01-11T04:09:53.591Z,1.13
2023-01-11T04:12:20.188Z,1.03
2023-01-11T04:14:46.713Z,1.06
2023-01-11T04:17:13.281Z,1.10
2023-01-11T04:19:39.905Z,1.13
2023-01-11T04:22:06.480Z,1.14
2023-01-11T04:24:33.059Z,1.09
2023-01-11T04:26:59.634Z,1.09
2023-01-11T04:29:26.184Z,1.09
2023-01-11T04:31:52.874Z,1.12
2023-01-11T04:34:19.455Z,1.12
2023-01-11T04:36:46.022Z,1.14
2023-01-11T04:39:12.717Z,1.17
2023-01-11T04:41:58.501Z,1.23
2023-01-11T04:44:25.049Z,1.24
2023-01-11T04:46:51.627Z,1.23
2023-01-11T04:49:18.214Z,1.24
2023-01-11T04:51:44.787Z,1.18
2023-01-11T04:54:11.395Z,1.14
2023-01-11T04:56:37.959Z,1.10
2023-01-11T04:59:04.609Z,1.06
2023-01-11T05:01:31.227Z,1.02
2023-01-11T05:03:57.834Z,1.00
2023-01-11T05:06:24.537Z,0.99
2023-01-11T05:08:51.509Z,0.99
2023-01-11T05:11:18.271Z,0.93
2023-01-11T05:13:45.301Z,0.86
2023-01-11T05:16:18.033Z,0.84
2023-01-11T05:18:48.930Z,0.86
2023-01-11T05:21:18.097Z,0.88
2023-01-11T05:23:45.271Z,0.92
2023-01-11T05:26:15.285Z,0.88
2023-01-11T05:28:41.853Z,0.76
2023-01-11T05:31:08.405Z,0.69
2023-01-11T05:33:35.454Z,0.63
2023-01-11T05:36:07.846Z,0.62
2023-01-11T05:38:34.914Z,0.61
2023-01-11T05:41:04.626Z,0.54
2023-01-11T05:43:31.799Z,0.46
2023-01-11T05:45:59.704Z,0.38
2023-01-11T05:48:26.723Z,0.31
2023-01-11T05:50:56.458Z,0.28
2023-01-11T05:53:24.273Z,0.22
2023-01-11T05:55:55.932Z,0.20
2023-01-11T05:58:24.113Z,0.12
2023-01-11T06:00:52.516Z,0.12
2023-01-11T06:03:19.895Z,0.14
2023-01-11T06:05:47.008Z,0.09
2023-01-11T06:08:13.777Z,0.09
2023-01-11T06:10:40.555Z,0.11
2023-01-11T06:13:25.743Z,0.09
2023-01-11T06:16:06.152Z,0.09
2023-01-11T06:18:35.199Z,0.08
2023-01-11T06:21:02.283Z,0.13
2023-01-11T06:23:31.213Z,0.18
2023-01-11T06:26:01.249Z,0.20
2023-01-11T06:28:27.855Z,0.24
2023-01-11T06:30:59.249Z,0.28
2023-01-11T06:33:27.669Z,0.31
2023-01-11T06:35:55.688Z,0.37
2023-01-11T06:38:24.182Z,0.40
2023-01-11T06:40:58.929Z,0.45
2023-01-11T06:43:25.734Z,0.52
2023-01-11T06:45:52.431Z,0.53
2023-01-11T06:48:20.722Z,0.53
2023-01-11T06:50:52.308Z,0.54
2023-01-11T06:53:18.890Z,0.57
2023-01-11T06:55:45.543Z,0.61
2023-01-11T06:58:12.092Z,0.60
2023-01-11T07:00:40.294Z,0.59
2023-01-11T07:03:07.137Z,0.61
2023-01-11T07:05:35.412Z,0.67
2023-01-11T07:08:02.578Z,0.73
2023-01-11T07:10:29.418Z,0.80
2023-01-11T07:12:56.036Z,0.83
2023-01-11T07:15:22.943Z,0.88
2023-01-11T07:17:54.839Z,0.97
2023-01-11T07:20:22.600Z,1.02
2023-01-11T07:22:49.425Z,1.05
2023-01-11T07:25:16.116Z,1.08
2023-01-11T07:27:42.708Z,1.12
2023-01-11T07:30:10.093Z,1.17
2023-01-11T07:32:36.864Z,1.22
2023-01-11T07:35:03.728Z,1.27
2023-01-11T07:37:32.714Z,1.35
2023-01-11T07:39:59.334Z,1.43
2023-01-11T07:42:44.808Z,1.52
2023-01-11T07:45:11.604Z,1.60
2023-01-11T07:47:38.158Z,1.71
2023-01-11T07:50:05.222Z,1.79
2023-01-11T07:52:31.785Z,1.88
2023-01-11T07:55:02.515Z,1.98
2023-01-11T07:57:30.389Z,2.13
2023-01-11T07:59:57.102Z,2.27
2023-01-11T08:02:23.887Z,2.36
2023-01-11T08:04:50.681Z,2.39
2023-01-11T08:07:17.320Z,2.41
2023-01-11T08:09:44.033Z,2.41
2023-01-11T08:12:28.861Z,2.41
2023-01-11T08:14:55.459Z,2.44
2023-01-11T08:17:22.025Z,2.50
2023-01-11T08:19:48.594Z,2.61
2023-01-11T08:22:15.188Z,2.67
2023-01-11T08:24:41.752Z,2.72
2023-01-11T08:27:08.389Z,2.74
2023-01-11T08:29:35.125Z,2.77
2023-01-11T08:32:01.718Z,2.79
2023-01-11T08:34:29.168Z,2.80
2023-01-11T08:36:57.580Z,2.81
2023-01-11T08:39:24.912Z,2.86
2023-01-11T08:41:51.513Z,2.92
2023-01-11T08:44:29.003Z,2.98
2023-01-11T08:46:59.603Z,3.03
2023-01-11T08:49:27.315Z,3.08
2023-01-11T08:51:53.965Z,3.14
2023-01-11T08:54:20.536Z,3.20
2023-01-11T08:56:47.101Z,3.59
2023-01-11T08:59:14.075Z,4.51
2023-01-11T09:01:40.695Z,5.54
2023-01-11T09:04:23.188Z,6.47
2023-01-11T09:06:51.410Z,7.48
2023-01-11T09:09:18.110Z,8.29
2023-01-11T09:12:04.757Z,9.07
2023-01-11T09:14:32.277Z,9.99
2023-01-11T09:16:59.100Z,10.69
2023-01-11T09:19:25.923Z,11.25
2023-01-11T09:21:53.324Z,11.59
2023-01-11T09:24:19.956Z,12.07
2023-01-11T09:26:46.569Z,12.70
2023-01-11T09:29:13.890Z,13.19
2023-01-11T09:31:42.314Z,13.56
2023-01-11T09:34:10.996Z,14.15
2023-01-11T09:36:39.929Z,13.90
2023-01-11T09:39:10.566Z,14.35
2023-01-11T09:42:01.128Z,14.97
2023-01-11T09:44:29.852Z,15.90
2023-01-11T09:47:17.844Z,16.44
2023-01-11T09:49:56.364Z,16.72
2023-01-11T09:52:38.199Z,17.21
2023-01-11T09:55:06.165Z,17.71
2023-01-11T09:58:10.242Z,18.12
2023-01-11T10:01:01.213Z,17.39
2023-01-11T10:03:34.170Z,17.12
2023-01-11T10:06:20.699Z,18.20
2023-01-11T10:18:30.187Z,19.93
2023-01-11T10:18:48.797Z,20.14
2023-01-11T10:21:28.884Z,20.43
2023-01-11T10:24:20.424Z,20.42
2023-01-11T10:26:50.222Z,20.05
2023-01-11T10:29:38.822Z,19.95
2023-01-11T10:32:48.944Z,19.99
2023-01-11T10:35:59.041Z,20.49
2023-01-11T10:38:56.345Z,21.16
2023-01-11T10:41:35.951Z,21.58
2023-01-11T10:44:11.455Z,21.71
2023-01-11T10:46:43.485Z,21.99
2023-01-11T10:49:43.204Z,22.31
2023-01-11T10:52:29.236Z,22.44
2023-01-11T10:54:57.417Z,22.96
2023-01-11T10:58:00.440Z,23.38
2023-01-11T11:00:48.724Z,23.32
2023-01-11T11:03:53.025Z,23.31
2023-01-11T11:06:54.540Z,23.43
2023-01-11T11:09:44.606Z,23.41
2023-01-11T11:12:24.033Z,23.84
2023-01-11T11:14:58.042Z,23.76
2023-01-11T11:17:39.779Z,24.10
2023-01-11T11:20:20.028Z,24.42
2023-01-11T11:22:50.116Z,24.25
2023-01-11T11:25:22.909Z,24.24
2023-01-11T11:27:52.785Z,24.45
2023-01-11T11:30:33.389Z,24.45
2023-01-11T11:33:02.607Z,24.69
2023-01-11T11:35:34.337Z,25.04
2023-01-11T11:38:02.535Z,25.17
2023-01-11T11:40:35.143Z,25.11
2023-01-11T11:43:23.643Z,25.47
2023-01-11T11:46:05.349Z,25.32
2023-01-11T11:48:35.424Z,25.00
2023-01-11T11:51:05.516Z,24.37
2023-01-11T11:53:43.115Z,24.03
2023-01-11T11:56:24.336Z,24.12
2023-01-11T11:58:52.461Z,24.15
2023-01-11T12:01:35.361Z,24.40
2023-01-11T12:04:23.571Z,24.73
2023-01-11T12:07:16.437Z,25.07
2023-01-11T12:09:47.973Z,24.93
2023-01-11T12:12:20.576Z,24.44
2023-01-11T12:15:20.613Z,24.46
2023-01-11T12:17:48.329Z,24.26
2023-01-11T12:20:23.808Z,23.45
2023-01-11T12:23:09.032Z,23.10
2023-01-11T12:25:50.642Z,23.40
2023-01-11T12:28:28.211Z,22.03
2023-01-11T12:31:19.052Z,22.36
2023-01-11T12:34:00.420Z,22.68
2023-01-11T12:36:51.149Z,21.48
2023-01-11T12:39:35.795Z,20.84
2023-01-11T12:42:34.830Z,20.52
2023-01-11T12:45:31.548Z,21.25
2023-01-11T12:48:21.199Z,21.09
2023-01-11T12:51:23.071Z,20.14
2023-01-11T12:54:28.740Z,20.10
2023-01-11T12:57:21.444Z,19.83
2023-01-11T12:59:54.099Z,20.10
2023-01-11T13:02:23.551Z,20.46
2023-01-11T13:04:52.967Z,20.49
2023-01-11T13:07:46.675Z,20.22
2023-01-11T13:10:22.712Z,20.34
2023-01-11T13:13:01.118Z,20.37
2023-01-11T13:15:54.124Z,20.25
2023-01-11T13:18:30.504Z,19.96
2023-01-11T13:21:06.911Z,19.36
2023-01-11T13:23:42.041Z,19.43
2023-01-11T13:26:34.874Z,18.95
2023-01-11T13:29:12.215Z,19.32
2023-01-11T13:31:41.447Z,18.67
2023-01-11T13:34:18.947Z,18.07
2023-01-11T13:36:51.605Z,18.18
2023-01-11T13:39:28.155Z,18.23
2023-01-11T13:42:00.035Z,17.92
2023-01-11T13:44:42.599Z,17.69
2023-01-11T13:47:37.485Z,17.56
2023-01-11T13:50:07.563Z,17.36
2023-01-11T13:53:15.080Z,17.50
2023-01-11T13:56:06.268Z,17.33
2023-01-11T13:58:37.420Z,17.66
2023-01-11T14:01:08.275Z,17.32
2023-01-11T14:04:00.405Z,17.25
2023-01-11T14:06:45.000Z,17.14
2023-01-11T14:09:20.422Z,17.08
2023-01-11T14:12:08.653Z,16.69
2023-01-11T14:15:20.675Z,16.50
2023-01-11T14:18:11.942Z,16.45
2023-01-11T14:20:55.543Z,16.21
2023-01-11T14:23:35.407Z,15.49
2023-01-11T14:26:38.291Z,15.08
2023-01-11T14:29:35.749Z,14.77
2023-01-11T14:32:06.628Z,14.32
2023-01-11T14:34:43.002Z,14.04
2023-01-11T14:37:35.938Z,13.95
2023-01-11T14:40:05.436Z,13.71
2023-01-11T14:43:02.816Z,13.15
2023-01-11T14:45:48.217Z,12.66
2023-01-11T14:49:13.464Z,12.21
2023-01-11T14:51:57.679Z,11.77
2023-01-11T14:54:32.469Z,11.51
2023-01-11T14:57:00.127Z,11.26
2023-01-11T14:59:38.451Z,10.92
2023-01-11T15:02:05.112Z,10.76
2023-01-11T15:04:59.125Z,10.51
2023-01-11T15:07:37.837Z,10.18
2023-01-11T15:10:29.284Z,9.92
2023-01-11T15:12:57.634Z,9.89
2023-01-11T15:15:47.496Z,9.84
2023-01-11T15:18:23.141Z,9.58
2023-01-11T15:20:57.683Z,9.34
2023-01-11T15:23:25.107Z,9.13
2023-01-11T15:26:01.253Z,8.84
2023-01-11T15:28:49.182Z,8.70
2023-01-11T15:31:38.935Z,8.53
2023-01-11T15:34:20.857Z,8.36
2023-01-11T15:37:01.589Z,8.24
2023-01-11T15:39:45.376Z,8.11
2023-01-11T15:42:17.662Z,8.04
2023-01-11T15:44:52.914Z,7.91
2023-01-11T15:47:39.600Z,7.87
2023-01-11T15:50:31.771Z,7.76
2023-01-11T15:53:25.219Z,7.59
2023-01-11T15:56:37.408Z,7.46
2023-01-11T15:59:24.970Z,7.33
2023-01-11T16:02:11.104Z,7.26
2023-01-11T16:05:12.527Z,7.17
2023-01-11T16:07:57.767Z,7.11
2023-01-11T16:10:30.660Z,7.12
2023-01-11T16:13:17.366Z,7.00
2023-01-11T16:15:54.267Z,6.82
2023-01-11T16:18:25.884Z,6.54
2023-01-11T16:21:08.337Z,6.45
2023-01-11T16:23:35.280Z,6.25
2023-01-11T16:26:02.712Z,6.09
2023-01-11T16:28:29.517Z,5.95
2023-01-11T16:31:01.838Z,5.82
2023-01-11T16:33:31.114Z,5.72
2023-01-11T16:36:10.735Z,5.50
2023-01-11T16:39:02.114Z,5.32
2023-01-11T16:41:39.039Z,5.29
2023-01-11T16:44:09.175Z,5.28
2023-01-11T16:47:04.078Z,5.16
2023-01-11T16:49:31.557Z,4.99
2023-01-11T16:52:01.845Z,4.69
2023-01-11T16:54:33.461Z,4.65
2023-01-11T16:57:01.560Z,4.76
2023-01-11T16:59:34.004Z,4.74
2023-01-11T17:02:05.190Z,4.64
2023-01-11T17:04:49.221Z,4.61
2023-01-11T17:07:29.100Z,4.53
2023-01-11T17:10:27.762Z,4.43
2023-01-11T17:13:03.212Z,4.31
2023-01-11T17:16:02.817Z,4.27
2023-01-11T17:18:29.959Z,4.21
2023-01-11T17:20:57.347Z,4.07
2023-01-11T17:23:24.068Z,4.00
2023-01-11T17:25:56.742Z,3.81
2023-01-11T17:28:24.183Z,3.87
2023-01-11T17:30:53.314Z,3.88
2023-01-11T17:33:33.022Z,3.85
2023-01-11T17:36:01.306Z,3.84
2023-01-11T17:38:29.218Z,3.81
2023-01-11T17:40:56.853Z,3.68
2023-01-11T17:43:45.021Z,3.54
2023-01-11T17:46:18.590Z,3.35
2023-01-11T17:48:59.702Z,3.25
2023-01-11T17:51:28.624Z,2.99
2023-01-11T17:53:55.384Z,2.88
2023-01-11T17:56:39.246Z,2.80
2023-01-11T17:59:18.956Z,2.78
2023-01-11T18:01:52.226Z,2.80
2023-01-11T18:04:22.012Z,2.87
2023-01-11T18:06:50.670Z,2.89
2023-01-11T18:09:30.952Z,2.98
2023-01-11T18:12:32.559Z,3.08
2023-01-11T18:15:05.763Z,3.09
2023-01-11T18:17:32.355Z,3.08
2023-01-11T18:20:00.214Z,3.06
2023-01-11T18:22:31.366Z,3.08
2023-01-11T18:24:59.865Z,3.06
2023-01-11T18:27:29.184Z,3.01
2023-01-11T18:29:57.607Z,2.92
2023-01-11T18:32:25.893Z,2.79
2023-01-11T18:34:54.341Z,2.60
2023-01-11T18:37:21.219Z,2.42
2023-01-11T18:39:49.657Z,2.30
2023-01-11T18:42:19.935Z,2.16
2023-01-11T18:44:49.387Z,2.03
2023-01-11T18:47:19.332Z,1.92
2023-01-11T18:49:46.316Z,1.79
2023-01-11T18:52:13.399Z,1.65
2023-01-11T18:54:41.145Z,1.53
2023-01-11T18:57:07.891Z,1.44
2023-01-11T18:59:34.636Z,1.45
2023-01-11T19:02:16.555Z,1.47
2023-01-11T19:04:44.046Z,1.45
2023-01-11T19:07:11.094Z,1.40
2023-01-11T19:09:37.728Z,1.34
2023-01-11T19:12:04.796Z,1.31
2023-01-11T19:14:31.361Z,1.30
2023-01-11T19:16:58.000Z,1.29
2023-01-11T19:19:24.569Z,1.29
2023-01-11T19:21:51.161Z,1.31
2023-01-11T19:24:17.687Z,1.30
2023-01-11T19:26:44.351Z,1.28
2023-01-11T19:29:16.412Z,1.31
2023-01-11T19:31:47.661Z,1.36
2023-01-11T19:34:14.482Z,1.39
2023-01-11T19:36:41.767Z,1.43
2023-01-11T19:39:08.535Z,1.39
2023-01-11T19:41:54.439Z,1.34
2023-01-11T19:44:21.817Z,1.30
2023-01-11T19:46:53.050Z,1.28
2023-01-11T19:49:23.851Z,1.25
2023-01-11T19:51:50.579Z,1.29
2023-01-11T19:54:20.619Z,1.33
2023-01-11T19:56:49.332Z,1.33
2023-01-11T19:59:15.904Z,1.30
2023-01-11T20:01:43.461Z,1.25
2023-01-11T20:04:12.278Z,1.18
2023-01-11T20:06:41.233Z,1.10
2023-01-11T20:09:14.061Z,1.06
2023-01-11T20:11:40.997Z,0.96
2023-01-11T20:14:07.607Z,0.85
2023-01-11T20:16:34.233Z,0.75
2023-01-11T20:19:00.799Z,0.68
2023-01-11T20:21:31.489Z,0.55
2023-01-11T20:23:58.233Z,0.42
2023-01-11T20:26:32.321Z,0.34
2023-01-11T20:28:59.051Z,0.26
2023-01-11T20:31:28.328Z,0.18
2023-01-11T20:33:56.023Z,0.08
2023-01-11T20:36:23.574Z,0.01
2023-01-11T20:38:50.604Z,-0.03
2023-01-11T20:41:39.454Z,-0.09
2023-01-11T20:44:07.484Z,-0.16
2023-01-11T20:46:35.210Z,-0.22
2023-01-11T20:49:02.069Z,-0.20
2023-01-11T20:51:28.675Z,-0.20
2023-01-11T20:53:55.400Z,-0.25
2023-01-11T20:56:22.045Z,-0.27
2023-01-11T20:58:51.081Z,-0.29
2023-01-11T21:01:27.795Z,-0.32
2023-01-11T21:03:57.652Z,-0.38
2023-01-11T21:06:24.255Z,-0.47
2023-01-11T21:08:55.025Z,-0.52
2023-01-11T21:11:22.007Z,-0.52
2023-01-11T21:13:51.342Z,-0.63
2023-01-11T21:16:18.598Z,-0.64
2023-01-11T21:18:45.293Z,-0.63
2023-01-11T21:21:13.689Z,-0.64
2023-01-11T21:23:40.647Z,-0.65
2023-01-11T21:26:12.456Z,-0.62
2023-01-11T21:28:40.359Z,-0.65
2023-01-11T21:31:08.215Z,-0.72
2023-01-11T21:33:36.977Z,-0.81
2023-01-11T21:36:09.264Z,-0.90
2023-01-11T21:38:36.466Z,-0.91
2023-01-11T21:41:15.800Z,-0.92
2023-01-11T21:43:42.825Z,-0.92
2023-01-11T21:46:10.255Z,-0.86
2023-01-11T21:48:37.604Z,-0.81
2023-01-11T21:51:09.153Z,-0.77
2023-01-11T21:53:35.917Z,-0.76
2023-01-11T21:56:07.209Z,-0.73
2023-01-11T21:58:35.027Z,-0.69
2023-01-11T22:01:10.491Z,-0.65
2023-01-11T22:03:37.486Z,-0.63
2023-01-11T22:06:04.736Z,-0.61
2023-01-11T22:08:34.895Z,-0.59
2023-01-11T22:11:03.514Z,-0.57
2023-01-11T22:13:31.647Z,-0.52
2023-01-11T22:16:08.369Z,-0.50
2023-01-11T22:18:35.758Z,-0.46
2023-01-11T22:21:17.872Z,-0.44
2023-01-11T22:23:46.435Z,-0.43
2023-01-11T22:26:15.368Z,-0.42
2023-01-11T22:29:01.362Z,-0.42
2023-01-11T22:31:29.588Z,-0.43
2023-01-11T22:33:56.475Z,-0.44
2023-01-11T22:36:24.551Z,-0.48
2023-01-11T22:38:51.912Z,-0.47
2023-01-11T22:41:19.185Z,-0.48
2023-01-11T22:43:46.547Z,-0.45
2023-01-11T22:46:15.785Z,-0.50
2023-01-11T22:48:43.558Z,-0.55
2023-01-11T22:51:11.518Z,-0.58
2023-01-11T22:53:39.543Z,-0.61
2023-01-11T22:56:07.481Z,-0.59
2023-01-11T22:58:36.010Z,-0.58
2023-01-11T23:01:11.986Z,-0.60
2023-01-11T23:03:39.463Z,-0.66
2023-01-11T23:06:06.462Z,-0.69
2023-01-11T23:08:43.468Z,-0.71
2023-01-11T23:11:35.857Z,-0.72
2023-01-11T23:14:05.563Z,-0.73
2023-01-11T23:16:32.674Z,-0.72
2023-01-11T23:18:59.780Z,-0.73
2023-01-11T23:21:26.410Z,-0.76
2023-01-11T23:23:53.455Z,-0.78
2023-01-11T23:26:21.213Z,-0.80
2023-01-11T23:28:49.496Z,-0.85
2023-01-11T23:31:23.997Z,-0.90
2023-01-11T23:33:53.140Z,-0.90
2023-01-11T23:36:21.698Z,-0.96
2023-01-11T23:38:48.513Z,-1.02
2023-01-11T23:41:36.291Z,-1.08
2023-01-11T23:44:06.241Z,-1.12
2023-01-11T23:46:51.284Z,-1.13
2023-01-11T23:49:18.010Z,-1.12
2023-01-11T23:51:44.613Z,-1.11
2023-01-11T23:54:11.463Z,-1.10
2023-01-11T23:56:38.698Z,-1.07
2023-01-11T23:59:06.522Z,-1.07
